Knoxville, TN (37995)

2:51 PM EDT on August 30, 2016 (GMT -0400)
Island Home | | Change Station

Elev 928 ft 35.95 °N, 83.88 °W | Updated 7 minutes ago

Partly Cloudy
Partly Cloudy
90.0 °F
Feels Like 95 °F
N
0.0
Wind Variable Wind from NW

Today
High -- | Low -- °F
--% Chance of Precip.
Yesterday
High -- | Low -- °F
Precip. -- in
Pressure 30.06 in
Visibility 10.0 miles
Clouds Few 4000 ft
Heat Index 95 °F
Dew Point 69 °F
Humidity 50%
Rainfall 0.00 in
Snow Depth Not available.
7:06 AM 8:05 PM
Waning Crescent, 3% visible
METAR KTYS 301753Z 18005KT 10SM FEW040 32/17 A3010 RMK AO2 SLP178 T03170172 10328 20211 58011
Pressure 30.06 in
Visibility 10.0 miles
Clouds Few 4000 ft
Heat Index 95 °F
Dew Point 69 °F
Humidity 50%
Rainfall 0.00 in
Snow Depth Not available.
7:06 AM 8:05 PM
Waning Crescent, 3% visible
METAR KTYS 301753Z 18005KT 10SM FEW040 32/17 A3010 RMK AO2 SLP178 T03170172 10328 20211 58011

10-Day Weather Forecast

Almanac

Astronomy

Aug. 30, 2016 Rise Set
Actual Time
Civil Twilight
Nautical Twilight
Astronomical Twilight
Moon
Length of Visible Light
Length of Day
Tomorrow will be .
, % of the Moon is Illuminated

Today's Extremes

State Highs State Lows

Community

WunderPhotos

Upload Photos

1,935,875 photos uploaded!

WunderBlog® & News

Nearby

Air Quality

  Air Quality AQ Index Pollutant
Not available.

Snow Depth

Station Depth Elevation

Earthquake Activity

City Distance Mag. Time & Date
Minimum magnitude displayed is 2.5.

Coastal Water Temperatures

Place Temperature

Stations

Nearby Weather Stations

Station Location Temp. Windchill Dew Point Humidity Wind Precip. Elev Updated Type
                   

Watches & Warnings

There are currently no watches in effect.